sensor_id;sensor_type;location;lat;lon;timestamp;pressure;altitude;pressure_sealevel;temperature;humidity
37291;BME280;23175;-33.706;151.094;2022-12-08T00:00:11;98860.54;;;17.61;19.74
37291;BME280;23175;-33.706;151.094;2022-12-08T00:02:41;98859.55;;;18.80;19.24
37291;BME280;23175;-33.706;151.094;2022-12-08T00:05:11;98856.74;;;18.78;19.53
37291;BME280;23175;-33.706;151.094;2022-12-08T00:07:41;98862.28;;;18.12;20.87
37291;BME280;23175;-33.706;151.094;2022-12-08T00:10:12;98858.97;;;18.88;19.42
37291;BME280;23175;-33.706;151.094;2022-12-08T00:12:42;98864.01;;;18.15;20.08
37291;BME280;23175;-33.706;151.094;2022-12-08T00:15:12;98860.40;;;17.13;20.29
37291;BME280;23175;-33.706;151.094;2022-12-08T00:17:42;98853.83;;;17.93;19.68
37291;BME280;23175;-33.706;151.094;2022-12-08T00:20:13;98865.85;;;17.54;19.87
37291;BME280;23175;-33.706;151.094;2022-12-08T00:22:43;98864.17;;;17.84;20.44
37291;BME280;23175;-33.706;151.094;2022-12-08T00:25:13;98854.40;;;19.06;19.23
37291;BME280;23175;-33.706;151.094;2022-12-08T00:27:43;98841.02;;;18.53;18.57
37291;BME280;23175;-33.706;151.094;2022-12-08T00:30:13;98839.47;;;17.81;20.69
37291;BME280;23175;-33.706;151.094;2022-12-08T00:32:43;98837.99;;;18.89;20.06
37291;BME280;23175;-33.706;151.094;2022-12-08T00:35:13;98832.61;;;19.17;18.99
37291;BME280;23175;-33.706;151.094;2022-12-08T00:37:43;98828.74;;;17.07;18.95
37291;BME280;23175;-33.706;151.094;2022-12-08T00:40:16;98834.10;;;18.43;18.94
37291;BME280;23175;-33.706;151.094;2022-12-08T00:42:47;98828.03;;;18.50;19.19
37291;BME280;23175;-33.706;151.094;2022-12-08T00:45:17;98822.39;;;18.40;19.13
37291;BME280;23175;-33.706;151.094;2022-12-08T00:47:47;98830.77;;;18.21;18.75
37291;BME280;23175;-33.706;151.094;2022-12-08T00:50:17;98833.96;;;18.26;18.98
37291;BME280;23175;-33.706;151.094;2022-12-08T00:52:47;98836.92;;;18.13;18.87
37291;BME280;23175;-33.706;151.094;2022-12-08T00:55:17;98832.92;;;18.62;19.15
37291;BME280;23175;-33.706;151.094;2022-12-08T00:57:47;98826.14;;;18.56;18.71
37291;BME280;23175;-33.706;151.094;2022-12-08T01:00:17;98827.49;;;19.16;18.05
37291;BME280;23175;-33.706;151.094;2022-12-08T01:02:48;98835.12;;;19.29;18.47
37291;BME280;23175;-33.706;151.094;2022-12-08T01:05:18;98828.98;;;20.10;17.44
37291;BME280;23175;-33.706;151.094;2022-12-08T01:07:49;98827.71;;;21.84;16.84
37291;BME280;23175;-33.706;151.094;2022-12-08T01:10:19;98825.22;;;21.06;16.83
37291;BME280;23175;-33.706;151.094;2022-12-08T01:12:49;98828.05;;;21.89;17.51
37291;BME280;23175;-33.706;151.094;2022-12-08T01:15:19;98827.01;;;19.45;17.99
37291;BME280;23175;-33.706;151.094;2022-12-08T01:17:49;98832.35;;;19.92;17.50
37291;BME280;23175;-33.706;151.094;2022-12-08T01:20:19;98827.77;;;20.11;17.88
37291;BME280;23175;-33.706;151.094;2022-12-08T01:22:49;98838.44;;;21.39;27.10
37291;BME280;23175;-33.706;151.094;2022-12-08T01:25:19;98843.32;;;19.90;29.97
37291;BME280;23175;-33.706;151.094;2022-12-08T01:27:51;98840.07;;;20.63;29.30
37291;BME280;23175;-33.706;151.094;2022-12-08T01:30:21;98838.18;;;20.28;30.05
37291;BME280;23175;-33.706;151.094;2022-12-08T01:32:51;98835.39;;;18.88;32.04
37291;BME280;23175;-33.706;151.094;2022-12-08T01:35:21;98831.05;;;17.89;34.16
37291;BME280;23175;-33.706;151.094;2022-12-08T01:37:52;98834.98;;;19.11;32.18
37291;BME280;23175;-33.706;151.094;2022-12-08T01:40:23;98837.17;;;17.97;33.61
37291;BME280;23175;-33.706;151.094;2022-12-08T01:42:53;98847.40;;;17.44;34.47
37291;BME280;23175;-33.706;151.094;2022-12-08T01:45:26;98842.48;;;17.93;34.31
37291;BME280;23175;-33.706;151.094;2022-12-08T01:47:59;98840.28;;;18.06;33.82
37291;BME280;23175;-33.706;151.094;2022-12-08T01:50:31;98839.61;;;17.90;34.36
37291;BME280;23175;-33.706;151.094;2022-12-08T01:53:06;98838.58;;;19.09;33.18
37291;BME280;23175;-33.706;151.094;2022-12-08T01:55:42;98836.17;;;19.91;32.16
37291;BME280;23175;-33.706;151.094;2022-12-08T01:58:16;98838.10;;;19.01;33.33
37291;BME280;23175;-33.706;151.094;2022-12-08T02:00:48;98843.97;;;19.78;32.15
37291;BME280;23175;-33.706;151.094;2022-12-08T02:03:23;98846.35;;;19.13;32.90
37291;BME280;23175;-33.706;151.094;2022-12-08T02:05:54;98842.28;;;18.99;32.19
37291;BME280;23175;-33.706;151.094;2022-12-08T02:08:26;98843.57;;;18.59;32.10
37291;BME280;23175;-33.706;151.094;2022-12-08T02:10:56;98847.34;;;17.88;32.63
37291;BME280;23175;-33.706;151.094;2022-12-08T02:13:26;98847.97;;;18.61;32.36
37291;BME280;23175;-33.706;151.094;2022-12-08T02:16:04;98837.55;;;19.62;31.53
37291;BME280;23175;-33.706;151.094;2022-12-08T02:18:50;98848.65;;;19.52;31.40
37291;BME280;23175;-33.706;151.094;2022-12-08T02:21:27;98851.98;;;18.07;33.04
37291;BME280;23175;-33.706;151.094;2022-12-08T02:24:04;98843.60;;;19.14;31.87
37291;BME280;23175;-33.706;151.094;2022-12-08T02:26:54;98856.95;;;17.71;33.68
37291;BME280;23175;-33.706;151.094;2022-12-08T02:29:54;98855.01;;;17.48;33.58
37291;BME280;23175;-33.706;151.094;2022-12-08T02:34:17;98858.35;;;17.72;33.06
37291;BME280;23175;-33.706;151.094;2022-12-08T02:36:56;98854.83;;;15.46;36.69
37291;BME280;23175;-33.706;151.094;2022-12-08T02:39:36;98859.47;;;18.17;33.90
37291;BME280;23175;-33.706;151.094;2022-12-08T02:42:14;98875.25;;;17.21;34.81
37291;BME280;23175;-33.706;151.094;2022-12-08T02:44:53;98873.14;;;17.49;34.53
37291;BME280;23175;-33.706;151.094;2022-12-08T02:47:25;98873.68;;;17.49;34.53
37291;BME280;23175;-33.706;151.094;2022-12-08T02:49:56;98863.94;;;17.07;34.11
37291;BME280;23175;-33.706;151.094;2022-12-08T02:52:43;98857.81;;;18.02;33.14
37291;BME280;23175;-33.706;151.094;2022-12-08T02:55:21;98862.31;;;17.19;35.11
37291;BME280;23175;-33.706;151.094;2022-12-08T02:58:12;98865.10;;;16.70;33.55
37291;BME280;23175;-33.706;151.094;2022-12-08T03:00:57;98861.86;;;17.36;34.44
37291;BME280;23175;-33.706;151.094;2022-12-08T03:03:43;98867.81;;;18.31;33.60
37291;BME280;23175;-33.706;151.094;2022-12-08T03:06:22;98875.80;;;17.06;34.67
37291;BME280;23175;-33.706;151.094;2022-12-08T03:09:00;98869.17;;;16.22;35.39
37291;BME280;23175;-33.706;151.094;2022-12-08T03:11:36;98871.21;;;18.19;32.82
37291;BME280;23175;-33.706;151.094;2022-12-08T03:14:11;98880.45;;;16.31;35.09
37291;BME280;23175;-33.706;151.094;2022-12-08T03:16:47;98878.64;;;19.04;32.00
37291;BME280;23175;-33.706;151.094;2022-12-08T03:19:22;98884.67;;;17.91;32.21
37291;BME280;23175;-33.706;151.094;2022-12-08T03:21:54;98880.32;;;18.91;31.35
37291;BME280;23175;-33.706;151.094;2022-12-08T03:24:25;98882.43;;;19.03;30.99
37291;BME280;23175;-33.706;151.094;2022-12-08T03:26:58;98899.77;;;17.20;33.44
37291;BME280;23175;-33.706;151.094;2022-12-08T03:29:32;98889.83;;;17.95;32.15
37291;BME280;23175;-33.706;151.094;2022-12-08T03:32:08;98883.84;;;16.25;34.35
37291;BME280;23175;-33.706;151.094;2022-12-08T03:34:43;98894.50;;;17.78;32.68
37291;BME280;23175;-33.706;151.094;2022-12-08T03:37:16;98885.43;;;17.87;32.63
37291;BME280;23175;-33.706;151.094;2022-12-08T03:39:46;98890.87;;;16.84;33.16
37291;BME280;23175;-33.706;151.094;2022-12-08T03:42:16;98888.10;;;17.24;32.92
37291;BME280;23175;-33.706;151.094;2022-12-08T03:44:46;98889.30;;;17.58;32.76
37291;BME280;23175;-33.706;151.094;2022-12-08T03:47:16;98878.86;;;16.67;33.70
37291;BME280;23175;-33.706;151.094;2022-12-08T03:49:46;98881.30;;;16.56;33.11
37291;BME280;23175;-33.706;151.094;2022-12-08T03:52:16;98889.76;;;16.35;33.90
37291;BME280;23175;-33.706;151.094;2022-12-08T03:54:46;98893.42;;;17.25;32.77
37291;BME280;23175;-33.706;151.094;2022-12-08T03:57:16;98887.38;;;16.96;33.03
37291;BME280;23175;-33.706;151.094;2022-12-08T03:59:46;98894.78;;;17.49;32.59
37291;BME280;23175;-33.706;151.094;2022-12-08T04:02:16;98889.84;;;16.74;32.81
37291;BME280;23175;-33.706;151.094;2022-12-08T04:04:46;98904.44;;;16.95;32.88
37291;BME280;23175;-33.706;151.094;2022-12-08T04:07:17;98902.07;;;16.84;32.63
37291;BME280;23175;-33.706;151.094;2022-12-08T04:09:47;98905.05;;;16.39;33.67
37291;BME280;23175;-33.706;151.094;2022-12-08T04:12:18;98908.03;;;16.91;32.21
37291;BME280;23175;-33.706;151.094;2022-12-08T04:14:48;98904.91;;;16.16;33.83
37291;BME280;23175;-33.706;151.094;2022-12-08T04:17:18;98899.72;;;17.19;32.18
37291;BME280;23175;-33.706;151.094;2022-12-08T04:19:48;98903.73;;;17.06;33.04
37291;BME280;23175;-33.706;151.094;2022-12-08T04:22:18;98903.96;;;16.31;33.60
37291;BME280;23175;-33.706;151.094;2022-12-08T04:24:49;98898.98;;;18.75;31.01
37291;BME280;23175;-33.706;151.094;2022-12-08T04:27:19;98900.11;;;15.97;33.80
37291;BME280;23175;-33.706;151.094;2022-12-08T04:29:49;98902.51;;;17.00;31.63
37291;BME280;23175;-33.706;151.094;2022-12-08T04:32:19;98900.41;;;18.68;30.85
37291;BME280;23175;-33.706;151.094;2022-12-08T04:34:49;98904.04;;;16.24;32.57
37291;BME280;23175;-33.706;151.094;2022-12-08T04:37:19;98911.86;;;17.88;31.53
37291;BME280;23175;-33.706;151.094;2022-12-08T04:39:49;98909.35;;;15.90;33.07
37291;BME280;23175;-33.706;151.094;2022-12-08T04:42:19;98912.72;;;16.41;31.99
37291;BME280;23175;-33.706;151.094;2022-12-08T04:44:49;98917.56;;;16.62;31.44
37291;BME280;23175;-33.706;151.094;2022-12-08T04:47:19;98923.61;;;18.23;29.96
37291;BME280;23175;-33.706;151.094;2022-12-08T04:49:50;98922.18;;;16.14;32.30
37291;BME280;23175;-33.706;151.094;2022-12-08T04:52:20;98927.08;;;16.83;30.43
37291;BME280;23175;-33.706;151.094;2022-12-08T04:54:50;98929.08;;;17.21;29.96
37291;BME280;23175;-33.706;151.094;2022-12-08T04:57:20;98925.32;;;17.88;30.12
37291;BME280;23175;-33.706;151.094;2022-12-08T04:59:50;98932.43;;;17.15;30.18
37291;BME280;23175;-33.706;151.094;2022-12-08T05:02:20;98940.86;;;17.57;30.00
37291;BME280;23175;-33.706;151.094;2022-12-08T05:04:50;98943.25;;;15.87;31.23
37291;BME280;23175;-33.706;151.094;2022-12-08T05:07:21;98938.03;;;15.87;31.31
37291;BME280;23175;-33.706;151.094;2022-12-08T05:09:50;98932.29;;;15.58;31.49
37291;BME280;23175;-33.706;151.094;2022-12-08T05:12:22;98934.50;;;16.14;31.41
37291;BME280;23175;-33.706;151.094;2022-12-08T05:14:52;98944.63;;;15.30;31.79
37291;BME280;23175;-33.706;151.094;2022-12-08T05:17:22;98946.37;;;17.22;30.00
37291;BME280;23175;-33.706;151.094;2022-12-08T05:19:52;98954.62;;;17.24;29.36
37291;BME280;23175;-33.706;151.094;2022-12-08T05:22:22;98952.96;;;16.44;30.91
37291;BME280;23175;-33.706;151.094;2022-12-08T05:24:52;98948.49;;;16.39;30.60
37291;BME280;23175;-33.706;151.094;2022-12-08T05:27:22;98946.37;;;17.91;28.32
37291;BME280;23175;-33.706;151.094;2022-12-08T05:29:53;98954.25;;;17.28;29.71
37291;BME280;23175;-33.706;151.094;2022-12-08T05:32:34;98958.05;;;16.03;31.53
37291;BME280;23175;-33.706;151.094;2022-12-08T05:35:04;98961.54;;;17.25;29.19
37291;BME280;23175;-33.706;151.094;2022-12-08T05:37:34;98963.90;;;18.00;28.62
37291;BME280;23175;-33.706;151.094;2022-12-08T05:40:04;98971.19;;;17.31;29.13
37291;BME280;23175;-33.706;151.094;2022-12-08T05:42:35;98965.03;;;17.28;29.75
37291;BME280;23175;-33.706;151.094;2022-12-08T05:45:06;98965.81;;;16.28;29.87
37291;BME280;23175;-33.706;151.094;2022-12-08T05:47:36;98969.23;;;17.45;29.37
37291;BME280;23175;-33.706;151.094;2022-12-08T05:50:07;98966.79;;;17.09;29.25
37291;BME280;23175;-33.706;151.094;2022-12-08T05:52:37;98974.62;;;17.46;28.59
37291;BME280;23175;-33.706;151.094;2022-12-08T05:55:08;98964.40;;;15.77;31.45
37291;BME280;23175;-33.706;151.094;2022-12-08T05:57:39;98969.41;;;17.92;28.91
37291;BME280;23175;-33.706;151.094;2022-12-08T06:00:09;98968.11;;;16.50;29.34
37291;BME280;23175;-33.706;151.094;2022-12-08T06:02:43;98972.40;;;18.20;28.77
37291;BME280;23175;-33.706;151.094;2022-12-08T06:05:13;98971.17;;;17.96;28.34
37291;BME280;23175;-33.706;151.094;2022-12-08T06:07:44;98977.91;;;17.27;29.04
37291;BME280;23175;-33.706;151.094;2022-12-08T06:10:13;98969.12;;;16.37;29.74
37291;BME280;23175;-33.706;151.094;2022-12-08T06:12:44;98969.54;;;14.90;32.37
37291;BME280;23175;-33.706;151.094;2022-12-08T06:15:13;98977.62;;;17.45;29.66
37291;BME280;23175;-33.706;151.094;2022-12-08T06:17:44;98981.37;;;17.24;28.98
37291;BME280;23175;-33.706;151.094;2022-12-08T06:20:14;98971.08;;;16.80;29.62
37291;BME280;23175;-33.706;151.094;2022-12-08T06:22:44;98974.52;;;16.10;30.31
37291;BME280;23175;-33.706;151.094;2022-12-08T06:25:14;98987.37;;;16.26;30.15
37291;BME280;23175;-33.706;151.094;2022-12-08T06:27:44;98989.90;;;16.44;29.93
37291;BME280;23175;-33.706;151.094;2022-12-08T06:30:15;98985.10;;;16.82;29.26
37291;BME280;23175;-33.706;151.094;2022-12-08T06:32:45;98991.44;;;16.59;29.84
37291;BME280;23175;-33.706;151.094;2022-12-08T06:35:16;98987.59;;;15.01;31.64
37291;BME280;23175;-33.706;151.094;2022-12-08T06:37:46;98996.11;;;16.10;30.13
37291;BME280;23175;-33.706;151.094;2022-12-08T06:40:16;99001.27;;;17.50;29.08
37291;BME280;23175;-33.706;151.094;2022-12-08T06:42:46;99006.16;;;16.59;29.47
37291;BME280;23175;-33.706;151.094;2022-12-08T06:45:17;99006.16;;;15.25;30.54
37291;BME280;23175;-33.706;151.094;2022-12-08T06:47:47;99012.50;;;16.40;29.72
37291;BME280;23175;-33.706;151.094;2022-12-08T06:50:17;99008.14;;;16.31;29.53
37291;BME280;23175;-33.706;151.094;2022-12-08T06:52:48;99016.44;;;15.41;31.07
37291;BME280;23175;-33.706;151.094;2022-12-08T06:55:18;99030.16;;;15.92;30.39
37291;BME280;23175;-33.706;151.094;2022-12-08T06:57:48;99031.54;;;16.44;30.33
37291;BME280;23175;-33.706;151.094;2022-12-08T07:00:19;99036.00;;;17.84;28.58
37291;BME280;23175;-33.706;151.094;2022-12-08T07:02:49;99040.71;;;16.18;30.00
37291;BME280;23175;-33.706;151.094;2022-12-08T07:05:19;99041.50;;;16.69;29.09
37291;BME280;23175;-33.706;151.094;2022-12-08T07:07:50;99044.63;;;16.64;29.73
37291;BME280;23175;-33.706;151.094;2022-12-08T07:10:20;99051.63;;;16.54;30.43
37291;BME280;23175;-33.706;151.094;2022-12-08T07:12:50;99061.50;;;15.00;30.22
37291;BME280;23175;-33.706;151.094;2022-12-08T07:15:20;99062.71;;;15.71;29.47
37291;BME280;23175;-33.706;151.094;2022-12-08T07:17:50;99068.19;;;16.97;29.22
37291;BME280;23175;-33.706;151.094;2022-12-08T07:20:20;99066.22;;;16.96;28.78
37291;BME280;23175;-33.706;151.094;2022-12-08T07:22:51;99068.19;;;16.90;29.05
37291;BME280;23175;-33.706;151.094;2022-12-08T07:25:21;99073.34;;;17.78;28.02
37291;BME280;23175;-33.706;151.094;2022-12-08T07:27:51;99080.91;;;16.61;29.17
37291;BME280;23175;-33.706;151.094;2022-12-08T07:30:21;99084.63;;;17.54;27.90
37291;BME280;23175;-33.706;151.094;2022-12-08T07:32:51;99084.99;;;16.40;29.33
37291;BME280;23175;-33.706;151.094;2022-12-08T07:35:21;99091.76;;;17.58;28.48
37291;BME280;23175;-33.706;151.094;2022-12-08T07:37:52;99102.98;;;18.55;27.30
37291;BME280;23175;-33.706;151.094;2022-12-08T07:40:22;99104.49;;;16.45;28.47
37291;BME280;23175;-33.706;151.094;2022-12-08T07:42:52;99111.04;;;17.07;27.84
37291;BME280;23175;-33.706;151.094;2022-12-08T07:45:22;99112.40;;;17.09;27.74
37291;BME280;23175;-33.706;151.094;2022-12-08T07:47:52;99116.70;;;17.53;27.87
37291;BME280;23175;-33.706;151.094;2022-12-08T07:50:22;99121.41;;;16.23;29.67
37291;BME280;23175;-33.706;151.094;2022-12-08T07:52:53;99130.95;;;17.48;28.48
37291;BME280;23175;-33.706;151.094;2022-12-08T07:55:23;99132.94;;;17.11;28.58
37291;BME280;23175;-33.706;151.094;2022-12-08T07:57:53;99144.77;;;17.15;28.99
37291;BME280;23175;-33.706;151.094;2022-12-08T08:00:23;99143.54;;;15.81;32.15
37291;BME280;23175;-33.706;151.094;2022-12-08T08:02:54;99143.49;;;17.25;29.20
37291;BME280;23175;-33.706;151.094;2022-12-08T08:05:24;99151.13;;;17.72;28.68
37291;BME280;23175;-33.706;151.094;2022-12-08T08:08:00;99158.72;;;18.32;28.51
37291;BME280;23175;-33.706;151.094;2022-12-08T08:10:30;99163.42;;;18.90;27.43
37291;BME280;23175;-33.706;151.094;2022-12-08T08:13:00;99163.94;;;17.82;28.25
37291;BME280;23175;-33.706;151.094;2022-12-08T08:15:30;99163.09;;;17.07;28.72
37291;BME280;23175;-33.706;151.094;2022-12-08T08:18:00;99166.67;;;19.40;26.70
37291;BME280;23175;-33.706;151.094;2022-12-08T08:20:30;99171.05;;;17.95;27.67
37291;BME280;23175;-33.706;151.094;2022-12-08T08:23:00;99172.35;;;17.33;28.33
37291;BME280;23175;-33.706;151.094;2022-12-08T08:25:30;99176.45;;;18.38;27.38
37291;BME280;23175;-33.706;151.094;2022-12-08T08:28:01;99186.72;;;15.74;29.69
37291;BME280;23175;-33.706;151.094;2022-12-08T08:30:31;99191.57;;;17.53;28.40
37291;BME280;23175;-33.706;151.094;2022-12-08T08:33:01;99198.56;;;17.30;28.12
37291;BME280;23175;-33.706;151.094;2022-12-08T08:35:31;99200.69;;;16.78;29.79
37291;BME280;23175;-33.706;151.094;2022-12-08T08:38:02;99203.92;;;16.41;29.23
37291;BME280;23175;-33.706;151.094;2022-12-08T08:40:31;99210.22;;;16.32;29.78
37291;BME280;23175;-33.706;151.094;2022-12-08T08:43:03;99217.44;;;16.83;29.18
37291;BME280;23175;-33.706;151.094;2022-12-08T08:45:33;99218.23;;;17.29;28.69
37291;BME280;23175;-33.706;151.094;2022-12-08T08:48:03;99221.59;;;17.43;28.73
37291;BME280;23175;-33.706;151.094;2022-12-08T08:50:33;99227.80;;;15.83;29.92
37291;BME280;23175;-33.706;151.094;2022-12-08T08:53:03;99233.94;;;16.68;29.43
37291;BME280;23175;-33.706;151.094;2022-12-08T08:55:33;99238.17;;;16.02;30.39
37291;BME280;23175;-33.706;151.094;2022-12-08T08:58:04;99248.85;;;15.23;30.79
37291;BME280;23175;-33.706;151.094;2022-12-08T09:00:34;99257.19;;;18.51;27.21
37291;BME280;23175;-33.706;151.094;2022-12-08T09:03:04;99263.24;;;17.42;28.20
37291;BME280;23175;-33.706;151.094;2022-12-08T09:05:34;99269.82;;;18.26;28.00
37291;BME280;23175;-33.706;151.094;2022-12-08T09:08:07;99273.63;;;19.16;26.93
37291;BME280;23175;-33.706;151.094;2022-12-08T09:10:37;99277.84;;;17.34;28.05
37291;BME280;23175;-33.706;151.094;2022-12-08T09:13:07;99282.27;;;17.67;28.13
37291;BME280;23175;-33.706;151.094;2022-12-08T09:15:38;99283.47;;;18.19;28.01
37291;BME280;23175;-33.706;151.094;2022-12-08T09:18:08;99282.02;;;16.91;29.42
37291;BME280;23175;-33.706;151.094;2022-12-08T09:20:38;99286.67;;;17.81;27.88
37291;BME280;23175;-33.706;151.094;2022-12-08T09:23:09;99292.88;;;17.76;27.97
37291;BME280;23175;-33.706;151.094;2022-12-08T09:25:39;99296.90;;;19.02;27.13
37291;BME280;23175;-33.706;151.094;2022-12-08T09:28:12;99301.04;;;17.64;28.20
37291;BME280;23175;-33.706;151.094;2022-12-08T09:30:43;99307.00;;;15.81;29.09
37291;BME280;23175;-33.706;151.094;2022-12-08T09:33:13;99311.87;;;15.53;29.40
37291;BME280;23175;-33.706;151.094;2022-12-08T09:35:44;99314.12;;;18.37;27.04
37291;BME280;23175;-33.706;151.094;2022-12-08T09:38:14;99322.57;;;18.10;28.11
37291;BME280;23175;-33.706;151.094;2022-12-08T09:40:49;99323.75;;;18.56;27.50
37291;BME280;23175;-33.706;151.094;2022-12-08T09:43:37;99330.75;;;20.03;25.91
37291;BME280;23175;-33.706;151.094;2022-12-08T09:46:12;99335.13;;;18.66;26.88
37291;BME280;23175;-33.706;151.094;2022-12-08T09:48:45;99342.27;;;19.72;25.96
37291;BME280;23175;-33.706;151.094;2022-12-08T09:51:19;99343.69;;;17.29;27.88
37291;BME280;23175;-33.706;151.094;2022-12-08T09:53:52;99351.54;;;16.63;29.05
37291;BME280;23175;-33.706;151.094;2022-12-08T09:56:25;99355.88;;;17.70;28.05
37291;BME280;23175;-33.706;151.094;2022-12-08T09:58:58;99363.97;;;16.38;29.80
37291;BME280;23175;-33.706;151.094;2022-12-08T10:01:30;99367.55;;;19.41;26.79
37291;BME280;23175;-33.706;151.094;2022-12-08T10:04:02;99374.56;;;17.83;28.47
37291;BME280;23175;-33.706;151.094;2022-12-08T10:06:40;99373.57;;;19.21;27.54
37291;BME280;23175;-33.706;151.094;2022-12-08T10:09:21;99379.37;;;19.53;27.26
37291;BME280;23175;-33.706;151.094;2022-12-08T10:11:59;99380.09;;;19.79;26.80
37291;BME280;23175;-33.706;151.094;2022-12-08T10:14:37;99382.46;;;18.52;27.32
37291;BME280;23175;-33.706;151.094;2022-12-08T10:17:16;99383.24;;;17.94;28.62
37291;BME280;23175;-33.706;151.094;2022-12-08T10:19:46;99385.63;;;19.73;26.25
37291;BME280;23175;-33.706;151.094;2022-12-08T10:22:22;99391.14;;;20.08;26.36
37291;BME280;23175;-33.706;151.094;2022-12-08T10:24:58;99393.27;;;19.38;27.64
37291;BME280;23175;-33.706;151.094;2022-12-08T10:27:29;99398.26;;;19.83;26.86
37291;BME280;23175;-33.706;151.094;2022-12-08T10:30:01;99403.46;;;19.99;26.72
37291;BME280;23175;-33.706;151.094;2022-12-08T10:32:35;99408.82;;;20.09;26.48
37291;BME280;23175;-33.706;151.094;2022-12-08T10:35:08;99414.95;;;19.79;26.27
37291;BME280;23175;-33.706;151.094;2022-12-08T10:37:40;99419.83;;;20.10;26.33
37291;BME280;23175;-33.706;151.094;2022-12-08T10:40:13;99423.46;;;20.22;26.14
37291;BME280;23175;-33.706;151.094;2022-12-08T10:42:47;99427.20;;;20.15;26.92
37291;BME280;23175;-33.706;151.094;2022-12-08T10:45:24;99431.80;;;20.31;26.06
37291;BME280;23175;-33.706;151.094;2022-12-08T10:48:00;99433.49;;;20.32;26.02
37291;BME280;23175;-33.706;151.094;2022-12-08T10:50:34;99437.17;;;20.52;26.03
37291;BME280;23175;-33.706;151.094;2022-12-08T10:53:13;99439.44;;;20.58;25.90
37291;BME280;23175;-33.706;151.094;2022-12-08T10:55:46;99444.38;;;20.27;26.34
37291;BME280;23175;-33.706;151.094;2022-12-08T10:58:34;99447.99;;;20.25;26.91
37291;BME280;23175;-33.706;151.094;2022-12-08T11:01:10;99447.32;;;20.55;26.45
37291;BME280;23175;-33.706;151.094;2022-12-08T11:03:45;99452.30;;;20.62;26.16
37291;BME280;23175;-33.706;151.094;2022-12-08T11:06:20;99448.14;;;20.56;26.99
37291;BME280;23175;-33.706;151.094;2022-12-08T11:08:54;99452.02;;;19.06;28.03
37291;BME280;23175;-33.706;151.094;2022-12-08T11:11:43;99452.05;;;18.14;29.33
37291;BME280;23175;-33.706;151.094;2022-12-08T11:14:17;99456.06;;;19.86;27.21
37291;BME280;23175;-33.706;151.094;2022-12-08T11:16:48;99457.13;;;17.90;29.12
37291;BME280;23175;-33.706;151.094;2022-12-08T11:19:20;99461.72;;;18.69;28.26
37291;BME280;23175;-33.706;151.094;2022-12-08T11:21:50;99461.83;;;19.23;27.26
37291;BME280;23175;-33.706;151.094;2022-12-08T11:24:24;99459.45;;;19.16;28.34
37291;BME280;23175;-33.706;151.094;2022-12-08T11:26:59;99463.62;;;18.33;28.79
37291;BME280;23175;-33.706;151.094;2022-12-08T11:29:33;99467.40;;;19.83;27.48
37291;BME280;23175;-33.706;151.094;2022-12-08T11:32:05;99467.68;;;19.68;27.61
37291;BME280;23175;-33.706;151.094;2022-12-08T11:34:41;99470.45;;;20.19;27.00
37291;BME280;23175;-33.706;151.094;2022-12-08T11:37:17;99477.28;;;15.26;31.96
37291;BME280;23175;-33.706;151.094;2022-12-08T11:40:25;99472.84;;;18.87;28.18
37291;BME280;23175;-33.706;151.094;2022-12-08T11:43:14;99472.51;;;18.79;28.91
37291;BME280;23175;-33.706;151.094;2022-12-08T11:45:45;99471.47;;;18.03;29.19
37291;BME280;23175;-33.706;151.094;2022-12-08T11:48:29;99471.29;;;19.31;27.91
37291;BME280;23175;-33.706;151.094;2022-12-08T11:51:04;99468.89;;;18.31;29.09
37291;BME280;23175;-33.706;151.094;2022-12-08T11:53:43;99469.53;;;19.14;28.19
37291;BME280;23175;-33.706;151.094;2022-12-08T11:56:20;99471.39;;;19.19;27.67
37291;BME280;23175;-33.706;151.094;2022-12-08T11:58:55;99476.78;;;19.46;27.36
37291;BME280;23175;-33.706;151.094;2022-12-08T12:01:27;99474.07;;;18.37;28.86
37291;BME280;23175;-33.706;151.094;2022-12-08T12:04:07;99475.17;;;20.25;27.39
37291;BME280;23175;-33.706;151.094;2022-12-08T12:07:11;99473.86;;;19.50;27.98
37291;BME280;23175;-33.706;151.094;2022-12-08T12:09:57;99474.17;;;18.97;28.27
37291;BME280;23175;-33.706;151.094;2022-12-08T12:12:40;99477.04;;;20.07;27.79
37291;BME280;23175;-33.706;151.094;2022-12-08T12:17:37;99481.70;;;20.41;27.92
37291;BME280;23175;-33.706;151.094;2022-12-08T12:20:16;99483.64;;;20.24;28.06
37291;BME280;23175;-33.706;151.094;2022-12-08T12:22:48;99481.94;;;19.81;28.20
37291;BME280;23175;-33.706;151.094;2022-12-08T12:25:23;99487.21;;;19.67;28.60
37291;BME280;23175;-33.706;151.094;2022-12-08T12:27:58;99488.45;;;19.73;27.96
37291;BME280;23175;-33.706;151.094;2022-12-08T12:30:48;99493.24;;;20.18;27.91
37291;BME280;23175;-33.706;151.094;2022-12-08T12:33:21;99493.25;;;19.81;28.75
37291;BME280;23175;-33.706;151.094;2022-12-08T12:35:52;99495.05;;;20.19;28.07
37291;BME280;23175;-33.706;151.094;2022-12-08T12:38:29;99493.25;;;20.04;27.80
37291;BME280;23175;-33.706;151.094;2022-12-08T12:41:03;99495.81;;;20.15;28.42
37291;BME280;23175;-33.706;151.094;2022-12-08T12:43:35;99497.65;;;20.03;28.60
37291;BME280;23175;-33.706;151.094;2022-12-08T12:47:13;99499.33;;;19.97;28.65
37291;BME280;23175;-33.706;151.094;2022-12-08T12:50:46;99500.66;;;19.92;28.86
37291;BME280;23175;-33.706;151.094;2022-12-08T12:53:49;99501.00;;;19.91;28.84
37291;BME280;23175;-33.706;151.094;2022-12-08T12:56:54;99500.35;;;19.80;29.58
37291;BME280;23175;-33.706;151.094;2022-12-08T12:59:46;99502.83;;;19.72;29.19
37291;BME280;23175;-33.706;151.094;2022-12-08T13:02:23;99503.73;;;19.52;29.11
37291;BME280;23175;-33.706;151.094;2022-12-08T13:04:58;99505.65;;;19.65;29.27